sensor_id;sensor_type;location;lat;lon;timestamp;temperature;humidity
5683;DHT22;2864;49.220;8.654;2023-07-29T00:01:34;17.20;99.90
5683;DHT22;2864;49.220;8.654;2023-07-29T00:04:00;17.40;99.90
5683;DHT22;2864;49.220;8.654;2023-07-29T00:06:26;17.20;99.90
5683;DHT22;2864;49.220;8.654;2023-07-29T00:08:52;17.20;99.90
5683;DHT22;2864;49.220;8.654;2023-07-29T00:11:17;17.30;99.90
5683;DHT22;2864;49.220;8.654;2023-07-29T00:13:43;17.30;99.90
5683;DHT22;2864;49.220;8.654;2023-07-29T00:16:09;17.20;99.90
5683;DHT22;2864;49.220;8.654;2023-07-29T00:18:35;19.30;99.90
5683;DHT22;2864;49.220;8.654;2023-07-29T00:21:01;17.30;99.90
5683;DHT22;2864;49.220;8.654;2023-07-29T00:23:27;17.30;99.90
5683;DHT22;2864;49.220;8.654;2023-07-29T00:25:52;17.30;99.90
5683;DHT22;2864;49.220;8.654;2023-07-29T00:28:18;17.30;99.90
5683;DHT22;2864;49.220;8.654;2023-07-29T00:30:43;17.30;99.90
5683;DHT22;2864;49.220;8.654;2023-07-29T00:33:09;17.30;99.90
5683;DHT22;2864;49.220;8.654;2023-07-29T00:35:35;18.20;99.90
5683;DHT22;2864;49.220;8.654;2023-07-29T00:38:00;17.20;99.90
5683;DHT22;2864;49.220;8.654;2023-07-29T00:40:28;17.20;99.90
5683;DHT22;2864;49.220;8.654;2023-07-29T00:42:53;17.20;99.90
5683;DHT22;2864;49.220;8.654;2023-07-29T00:45:19;17.20;99.90
5683;DHT22;2864;49.220;8.654;2023-07-29T00:47:45;17.10;99.90
5683;DHT22;2864;49.220;8.654;2023-07-29T00:50:12;18.50;99.90
5683;DHT22;2864;49.220;8.654;2023-07-29T00:52:38;17.10;99.90
5683;DHT22;2864;49.220;8.654;2023-07-29T00:55:05;17.10;99.90
5683;DHT22;2864;49.220;8.654;2023-07-29T00:57:31;17.10;99.90
5683;DHT22;2864;49.220;8.654;2023-07-29T00:59:57;17.20;99.90
5683;DHT22;2864;49.220;8.654;2023-07-29T01:02:24;17.60;99.90
5683;DHT22;2864;49.220;8.654;2023-07-29T01:04:58;18.90;99.90
5683;DHT22;2864;49.220;8.654;2023-07-29T01:10:39;17.20;99.90
5683;DHT22;2864;49.220;8.654;2023-07-29T01:13:13;17.20;99.90
5683;DHT22;2864;49.220;8.654;2023-07-29T01:16:02;18.30;99.90
5683;DHT22;2864;49.220;8.654;2023-07-29T01:18:32;17.30;99.90
5683;DHT22;2864;49.220;8.654;2023-07-29T01:21:04;17.20;99.90
5683;DHT22;2864;49.220;8.654;2023-07-29T01:23:31;17.20;99.90
5683;DHT22;2864;49.220;8.654;2023-07-29T01:25:56;17.20;99.90
5683;DHT22;2864;49.220;8.654;2023-07-29T01:28:23;17.20;99.90
5683;DHT22;2864;49.220;8.654;2023-07-29T01:30:51;17.60;99.90
5683;DHT22;2864;49.220;8.654;2023-07-29T01:33:26;17.10;99.90
5683;DHT22;2864;49.220;8.654;2023-07-29T01:36:01;17.10;99.90
5683;DHT22;2864;49.220;8.654;2023-07-29T01:38:30;17.00;99.90
5683;DHT22;2864;49.220;8.654;2023-07-29T01:41:00;17.00;99.90
5683;DHT22;2864;49.220;8.654;2023-07-29T01:43:28;17.50;99.90
5683;DHT22;2864;49.220;8.654;2023-07-29T01:45:54;16.90;99.90
5683;DHT22;2864;49.220;8.654;2023-07-29T01:48:20;16.90;99.90
5683;DHT22;2864;49.220;8.654;2023-07-29T01:50:45;16.90;99.90
5683;DHT22;2864;49.220;8.654;2023-07-29T01:53:11;16.80;99.90
5683;DHT22;2864;49.220;8.654;2023-07-29T01:55:36;19.10;99.90
5683;DHT22;2864;49.220;8.654;2023-07-29T01:58:02;18.70;99.90
5683;DHT22;2864;49.220;8.654;2023-07-29T02:00:27;16.60;99.90
5683;DHT22;2864;49.220;8.654;2023-07-29T02:02:53;16.50;99.90
5683;DHT22;2864;49.220;8.654;2023-07-29T02:05:18;16.40;99.90
5683;DHT22;2864;49.220;8.654;2023-07-29T02:07:44;19.30;99.90
5683;DHT22;2864;49.220;8.654;2023-07-29T02:10:09;16.40;99.90
5683;DHT22;2864;49.220;8.654;2023-07-29T02:12:35;16.40;99.90
5683;DHT22;2864;49.220;8.654;2023-07-29T02:15:00;16.40;99.90
5683;DHT22;2864;49.220;8.654;2023-07-29T02:17:26;16.50;99.90
5683;DHT22;2864;49.220;8.654;2023-07-29T02:19:52;17.10;99.90
5683;DHT22;2864;49.220;8.654;2023-07-29T02:22:18;16.60;99.90
5683;DHT22;2864;49.220;8.654;2023-07-29T02:24:44;17.40;99.90
5683;DHT22;2864;49.220;8.654;2023-07-29T02:27:10;16.60;99.90
5683;DHT22;2864;49.220;8.654;2023-07-29T02:29:35;16.70;99.90
5683;DHT22;2864;49.220;8.654;2023-07-29T02:32:02;16.70;99.90
5683;DHT22;2864;49.220;8.654;2023-07-29T02:34:28;16.70;99.90
5683;DHT22;2864;49.220;8.654;2023-07-29T02:36:54;16.80;99.90
5683;DHT22;2864;49.220;8.654;2023-07-29T02:39:20;16.80;99.90
5683;DHT22;2864;49.220;8.654;2023-07-29T02:41:45;16.90;99.90
5683;DHT22;2864;49.220;8.654;2023-07-29T02:44:11;16.90;99.90
5683;DHT22;2864;49.220;8.654;2023-07-29T02:46:37;18.70;99.90
5683;DHT22;2864;49.220;8.654;2023-07-29T02:49:03;17.00;99.90
5683;DHT22;2864;49.220;8.654;2023-07-29T02:51:32;17.00;99.90
5683;DHT22;2864;49.220;8.654;2023-07-29T02:53:58;17.10;99.90
5683;DHT22;2864;49.220;8.654;2023-07-29T02:56:23;17.00;99.90
5683;DHT22;2864;49.220;8.654;2023-07-29T02:58:49;17.00;99.90
5683;DHT22;2864;49.220;8.654;2023-07-29T03:01:17;17.00;99.90
5683;DHT22;2864;49.220;8.654;2023-07-29T03:03:43;17.90;99.90
5683;DHT22;2864;49.220;8.654;2023-07-29T03:06:10;17.00;99.90
5683;DHT22;2864;49.220;8.654;2023-07-29T03:08:36;17.40;99.90
5683;DHT22;2864;49.220;8.654;2023-07-29T03:11:28;17.00;99.90
5683;DHT22;2864;49.220;8.654;2023-07-29T03:13:54;17.10;99.90
5683;DHT22;2864;49.220;8.654;2023-07-29T03:16:19;17.00;99.90
5683;DHT22;2864;49.220;8.654;2023-07-29T03:18:45;18.60;99.90
5683;DHT22;2864;49.220;8.654;2023-07-29T03:21:11;17.00;99.90
5683;DHT22;2864;49.220;8.654;2023-07-29T03:23:38;17.00;99.90
5683;DHT22;2864;49.220;8.654;2023-07-29T03:26:04;17.70;99.90
5683;DHT22;2864;49.220;8.654;2023-07-29T03:28:39;17.00;99.90
5683;DHT22;2864;49.220;8.654;2023-07-29T03:31:05;17.00;99.90
5683;DHT22;2864;49.220;8.654;2023-07-29T03:33:31;17.10;99.90
5683;DHT22;2864;49.220;8.654;2023-07-29T03:35:57;17.00;99.90
5683;DHT22;2864;49.220;8.654;2023-07-29T03:38:22;17.00;99.90
5683;DHT22;2864;49.220;8.654;2023-07-29T03:40:48;18.30;99.90
5683;DHT22;2864;49.220;8.654;2023-07-29T03:43:13;19.90;99.90
5683;DHT22;2864;49.220;8.654;2023-07-29T03:45:41;17.10;99.90
5683;DHT22;2864;49.220;8.654;2023-07-29T03:48:07;17.10;99.90
5683;DHT22;2864;49.220;8.654;2023-07-29T03:50:36;17.10;99.90
5683;DHT22;2864;49.220;8.654;2023-07-29T03:53:05;17.10;99.90
5683;DHT22;2864;49.220;8.654;2023-07-29T03:55:31;17.10;99.90
5683;DHT22;2864;49.220;8.654;2023-07-29T03:57:58;17.10;99.90
5683;DHT22;2864;49.220;8.654;2023-07-29T04:00:24;17.20;99.90
5683;DHT22;2864;49.220;8.654;2023-07-29T04:02:49;17.20;99.90
5683;DHT22;2864;49.220;8.654;2023-07-29T04:05:15;17.20;99.90
5683;DHT22;2864;49.220;8.654;2023-07-29T04:07:41;17.20;99.90
5683;DHT22;2864;49.220;8.654;2023-07-29T04:10:07;17.20;99.90
5683;DHT22;2864;49.220;8.654;2023-07-29T04:12:33;17.20;99.90
5683;DHT22;2864;49.220;8.654;2023-07-29T04:14:58;17.20;99.90
5683;DHT22;2864;49.220;8.654;2023-07-29T04:17:24;17.30;99.90
5683;DHT22;2864;49.220;8.654;2023-07-29T04:19:49;17.80;99.90
5683;DHT22;2864;49.220;8.654;2023-07-29T04:22:16;17.30;99.90
5683;DHT22;2864;49.220;8.654;2023-07-29T04:24:41;17.40;99.90
5683;DHT22;2864;49.220;8.654;2023-07-29T04:27:07;17.40;99.90
5683;DHT22;2864;49.220;8.654;2023-07-29T04:29:32;17.40;99.90
5683;DHT22;2864;49.220;8.654;2023-07-29T04:31:58;17.40;99.90
5683;DHT22;2864;49.220;8.654;2023-07-29T04:34:24;17.50;99.90
5683;DHT22;2864;49.220;8.654;2023-07-29T04:36:49;17.40;99.90
5683;DHT22;2864;49.220;8.654;2023-07-29T04:39:15;17.50;99.90
5683;DHT22;2864;49.220;8.654;2023-07-29T04:41:40;17.50;99.90
5683;DHT22;2864;49.220;8.654;2023-07-29T04:44:06;17.90;99.90
5683;DHT22;2864;49.220;8.654;2023-07-29T04:46:32;17.80;99.90
5683;DHT22;2864;49.220;8.654;2023-07-29T04:48:58;19.00;99.90
5683;DHT22;2864;49.220;8.654;2023-07-29T04:51:24;17.70;99.90
5683;DHT22;2864;49.220;8.654;2023-07-29T04:53:50;17.70;99.90
5683;DHT22;2864;49.220;8.654;2023-07-29T04:56:15;17.70;99.90
5683;DHT22;2864;49.220;8.654;2023-07-29T04:58:41;17.70;99.90
5683;DHT22;2864;49.220;8.654;2023-07-29T05:01:06;17.70;99.90
5683;DHT22;2864;49.220;8.654;2023-07-29T05:03:32;17.80;99.90
5683;DHT22;2864;49.220;8.654;2023-07-29T05:05:59;17.80;99.90
5683;DHT22;2864;49.220;8.654;2023-07-29T05:08:25;17.80;99.90
5683;DHT22;2864;49.220;8.654;2023-07-29T05:10:51;17.80;99.90
5683;DHT22;2864;49.220;8.654;2023-07-29T05:13:18;17.80;99.90
5683;DHT22;2864;49.220;8.654;2023-07-29T05:15:43;17.80;99.90
5683;DHT22;2864;49.220;8.654;2023-07-29T05:18:09;18.20;99.90
5683;DHT22;2864;49.220;8.654;2023-07-29T05:20:34;17.90;99.90
5683;DHT22;2864;49.220;8.654;2023-07-29T05:23:00;17.90;99.90
5683;DHT22;2864;49.220;8.654;2023-07-29T05:25:26;18.80;99.90
5683;DHT22;2864;49.220;8.654;2023-07-29T05:27:52;19.30;99.90
5683;DHT22;2864;49.220;8.654;2023-07-29T05:30:18;18.00;99.90
5683;DHT22;2864;49.220;8.654;2023-07-29T05:32:43;18.10;99.90
5683;DHT22;2864;49.220;8.654;2023-07-29T05:35:10;18.10;99.90
5683;DHT22;2864;49.220;8.654;2023-07-29T05:37:38;20.30;99.90
5683;DHT22;2864;49.220;8.654;2023-07-29T05:40:04;18.20;99.90
5683;DHT22;2864;49.220;8.654;2023-07-29T05:42:30;18.30;99.90
5683;DHT22;2864;49.220;8.654;2023-07-29T05:44:55;18.30;99.90
5683;DHT22;2864;49.220;8.654;2023-07-29T05:47:21;18.40;99.90
5683;DHT22;2864;49.220;8.654;2023-07-29T05:49:46;18.40;99.90
5683;DHT22;2864;49.220;8.654;2023-07-29T05:52:12;18.40;99.90
5683;DHT22;2864;49.220;8.654;2023-07-29T05:54:38;19.20;99.90
5683;DHT22;2864;49.220;8.654;2023-07-29T05:57:03;20.40;99.90
5683;DHT22;2864;49.220;8.654;2023-07-29T05:59:29;18.70;99.90
5683;DHT22;2864;49.220;8.654;2023-07-29T06:01:55;18.80;99.90
5683;DHT22;2864;49.220;8.654;2023-07-29T06:04:21;18.70;99.90
5683;DHT22;2864;49.220;8.654;2023-07-29T06:06:46;18.90;99.90
5683;DHT22;2864;49.220;8.654;2023-07-29T06:09:12;18.80;99.90
5683;DHT22;2864;49.220;8.654;2023-07-29T06:11:37;19.50;99.90
5683;DHT22;2864;49.220;8.654;2023-07-29T06:14:03;18.80;99.90
5683;DHT22;2864;49.220;8.654;2023-07-29T06:16:28;19.60;99.90
5683;DHT22;2864;49.220;8.654;2023-07-29T06:18:54;19.10;99.90
5683;DHT22;2864;49.220;8.654;2023-07-29T06:21:19;20.30;99.90
5683;DHT22;2864;49.220;8.654;2023-07-29T06:23:46;19.10;99.90
5683;DHT22;2864;49.220;8.654;2023-07-29T06:26:11;19.20;99.90
5683;DHT22;2864;49.220;8.654;2023-07-29T06:28:37;21.00;99.90
5683;DHT22;2864;49.220;8.654;2023-07-29T06:31:02;19.40;99.90
5683;DHT22;2864;49.220;8.654;2023-07-29T06:33:28;19.40;99.90
5683;DHT22;2864;49.220;8.654;2023-07-29T06:35:54;21.40;99.90
5683;DHT22;2864;49.220;8.654;2023-07-29T06:38:20;19.40;99.90
5683;DHT22;2864;49.220;8.654;2023-07-29T06:40:50;19.40;99.90
5683;DHT22;2864;49.220;8.654;2023-07-29T06:43:16;19.40;99.90
5683;DHT22;2864;49.220;8.654;2023-07-29T06:45:43;19.50;99.90
5683;DHT22;2864;49.220;8.654;2023-07-29T06:48:09;19.70;99.90
5683;DHT22;2864;49.220;8.654;2023-07-29T06:50:34;19.80;99.90
5683;DHT22;2864;49.220;8.654;2023-07-29T06:53:00;20.30;99.90
5683;DHT22;2864;49.220;8.654;2023-07-29T06:55:25;19.90;99.90
5683;DHT22;2864;49.220;8.654;2023-07-29T06:57:51;20.00;99.90
5683;DHT22;2864;49.220;8.654;2023-07-29T07:00:17;20.00;99.90
5683;DHT22;2864;49.220;8.654;2023-07-29T07:02:42;20.00;99.90
5683;DHT22;2864;49.220;8.654;2023-07-29T07:05:08;19.90;99.90
5683;DHT22;2864;49.220;8.654;2023-07-29T07:07:34;20.10;99.90
5683;DHT22;2864;49.220;8.654;2023-07-29T07:09:59;20.20;99.90
5683;DHT22;2864;49.220;8.654;2023-07-29T07:12:25;20.20;99.90
5683;DHT22;2864;49.220;8.654;2023-07-29T07:14:50;20.30;99.90
5683;DHT22;2864;49.220;8.654;2023-07-29T07:17:16;21.30;99.90
5683;DHT22;2864;49.220;8.654;2023-07-29T07:19:42;20.30;99.90
5683;DHT22;2864;49.220;8.654;2023-07-29T07:22:07;22.10;99.90
5683;DHT22;2864;49.220;8.654;2023-07-29T07:24:33;20.70;99.90
5683;DHT22;2864;49.220;8.654;2023-07-29T07:26:58;20.60;99.90
5683;DHT22;2864;49.220;8.654;2023-07-29T07:29:24;20.70;99.90
5683;DHT22;2864;49.220;8.654;2023-07-29T07:31:51;20.90;99.90
5683;DHT22;2864;49.220;8.654;2023-07-29T07:34:20;21.20;99.90
5683;DHT22;2864;49.220;8.654;2023-07-29T07:36:46;23.00;99.90
5683;DHT22;2864;49.220;8.654;2023-07-29T07:39:12;21.20;99.90
5683;DHT22;2864;49.220;8.654;2023-07-29T07:41:37;21.40;99.90
5683;DHT22;2864;49.220;8.654;2023-07-29T07:44:03;22.80;99.90
5683;DHT22;2864;49.220;8.654;2023-07-29T07:46:29;22.00;99.90
5683;DHT22;2864;49.220;8.654;2023-07-29T07:48:55;22.00;99.90
5683;DHT22;2864;49.220;8.654;2023-07-29T07:51:20;21.60;99.90
5683;DHT22;2864;49.220;8.654;2023-07-29T07:53:46;21.50;99.90
5683;DHT22;2864;49.220;8.654;2023-07-29T07:56:11;21.30;99.90
5683;DHT22;2864;49.220;8.654;2023-07-29T07:58:38;21.00;99.90
5683;DHT22;2864;49.220;8.654;2023-07-29T08:01:07;20.80;99.90
5683;DHT22;2864;49.220;8.654;2023-07-29T08:03:33;20.70;99.90
5683;DHT22;2864;49.220;8.654;2023-07-29T08:05:59;20.60;99.90
5683;DHT22;2864;49.220;8.654;2023-07-29T08:08:26;20.50;99.90
5683;DHT22;2864;49.220;8.654;2023-07-29T08:10:56;20.40;99.90
5683;DHT22;2864;49.220;8.654;2023-07-29T08:13:23;20.50;99.90
5683;DHT22;2864;49.220;8.654;2023-07-29T08:15:49;21.60;99.90
5683;DHT22;2864;49.220;8.654;2023-07-29T08:18:15;20.50;99.90
5683;DHT22;2864;49.220;8.654;2023-07-29T08:20:50;21.00;99.90
5683;DHT22;2864;49.220;8.654;2023-07-29T08:23:16;20.50;99.90
5683;DHT22;2864;49.220;8.654;2023-07-29T08:25:42;20.60;99.90
5683;DHT22;2864;49.220;8.654;2023-07-29T08:28:07;20.60;99.90
5683;DHT22;2864;49.220;8.654;2023-07-29T08:30:33;20.60;99.90
5683;DHT22;2864;49.220;8.654;2023-07-29T08:32:58;20.50;99.90
5683;DHT22;2864;49.220;8.654;2023-07-29T08:35:24;20.60;99.90
5683;DHT22;2864;49.220;8.654;2023-07-29T08:37:49;21.60;99.90
5683;DHT22;2864;49.220;8.654;2023-07-29T08:40:15;20.60;99.90
5683;DHT22;2864;49.220;8.654;2023-07-29T08:42:41;20.70;99.90
5683;DHT22;2864;49.220;8.654;2023-07-29T08:48:39;20.90;99.90
5683;DHT22;2864;49.220;8.654;2023-07-29T08:51:05;20.90;99.90
5683;DHT22;2864;49.220;8.654;2023-07-29T08:53:33;21.10;99.90
5683;DHT22;2864;49.220;8.654;2023-07-29T08:55:59;21.10;99.90
5683;DHT22;2864;49.220;8.654;2023-07-29T08:58:25;21.20;99.90
5683;DHT22;2864;49.220;8.654;2023-07-29T09:00:51;21.50;99.90
5683;DHT22;2864;49.220;8.654;2023-07-29T09:03:17;21.60;99.90
5683;DHT22;2864;49.220;8.654;2023-07-29T09:05:43;21.70;99.90
5683;DHT22;2864;49.220;8.654;2023-07-29T09:08:09;21.70;99.90
5683;DHT22;2864;49.220;8.654;2023-07-29T09:10:36;22.10;99.90
5683;DHT22;2864;49.220;8.654;2023-07-29T09:13:03;22.20;99.90
5683;DHT22;2864;49.220;8.654;2023-07-29T09:15:34;22.70;99.90
5683;DHT22;2864;49.220;8.654;2023-07-29T09:18:16;22.70;99.90
5683;DHT22;2864;49.220;8.654;2023-07-29T09:20:43;23.10;99.90
5683;DHT22;2864;49.220;8.654;2023-07-29T09:23:10;23.40;99.90
5683;DHT22;2864;49.220;8.654;2023-07-29T09:25:36;23.00;99.90
5683;DHT22;2864;49.220;8.654;2023-07-29T09:28:13;23.00;99.90
5683;DHT22;2864;49.220;8.654;2023-07-29T09:30:41;23.10;99.90
5683;DHT22;2864;49.220;8.654;2023-07-29T09:33:08;23.30;99.90
5683;DHT22;2864;49.220;8.654;2023-07-29T09:35:35;23.20;99.90
5683;DHT22;2864;49.220;8.654;2023-07-29T09:38:05;23.30;99.90
5683;DHT22;2864;49.220;8.654;2023-07-29T09:40:39;23.50;99.90
5683;DHT22;2864;49.220;8.654;2023-07-29T09:43:06;23.40;99.90
5683;DHT22;2864;49.220;8.654;2023-07-29T09:45:34;23.40;99.90
5683;DHT22;2864;49.220;8.654;2023-07-29T09:47:59;23.40;99.90
5683;DHT22;2864;49.220;8.654;2023-07-29T09:50:26;23.60;99.90
5683;DHT22;2864;49.220;8.654;2023-07-29T09:52:53;24.10;99.90
5683;DHT22;2864;49.220;8.654;2023-07-29T09:55:21;24.70;99.90
5683;DHT22;2864;49.220;8.654;2023-07-29T10:01:34;24.00;99.90
5683;DHT22;2864;49.220;8.654;2023-07-29T10:04:02;24.20;99.90
5683;DHT22;2864;49.220;8.654;2023-07-29T10:06:29;23.90;99.90
5683;DHT22;2864;49.220;8.654;2023-07-29T10:08:55;23.80;99.90
5683;DHT22;2864;49.220;8.654;2023-07-29T10:11:21;23.80;99.90
5683;DHT22;2864;49.220;8.654;2023-07-29T10:13:48;25.10;99.90
5683;DHT22;2864;49.220;8.654;2023-07-29T10:16:14;24.40;99.90
5683;DHT22;2864;49.220;8.654;2023-07-29T10:18:40;24.50;99.90
5683;DHT22;2864;49.220;8.654;2023-07-29T10:21:07;24.40;99.90
5683;DHT22;2864;49.220;8.654;2023-07-29T10:23:41;24.70;99.90
5683;DHT22;2864;49.220;8.654;2023-07-29T10:26:10;24.40;99.90
5683;DHT22;2864;49.220;8.654;2023-07-29T10:28:39;25.40;99.90
5683;DHT22;2864;49.220;8.654;2023-07-29T10:31:05;25.40;99.90
5683;DHT22;2864;49.220;8.654;2023-07-29T10:33:34;24.10;99.90
5683;DHT22;2864;49.220;8.654;2023-07-29T10:36:00;24.40;99.90
5683;DHT22;2864;49.220;8.654;2023-07-29T10:38:26;25.00;99.90
5683;DHT22;2864;49.220;8.654;2023-07-29T10:40:55;24.00;99.90
5683;DHT22;2864;49.220;8.654;2023-07-29T10:43:35;23.90;99.90
5683;DHT22;2864;49.220;8.654;2023-07-29T10:46:19;23.60;99.90
5683;DHT22;2864;49.220;8.654;2023-07-29T10:48:54;24.00;99.90
5683;DHT22;2864;49.220;8.654;2023-07-29T10:51:30;23.80;99.90
5683;DHT22;2864;49.220;8.654;2023-07-29T10:54:02;24.30;99.90
5683;DHT22;2864;49.220;8.654;2023-07-29T10:56:31;24.40;99.90
5683;DHT22;2864;49.220;8.654;2023-07-29T10:58:58;24.30;99.90
5683;DHT22;2864;49.220;8.654;2023-07-29T11:01:31;24.00;99.90
5683;DHT22;2864;49.220;8.654;2023-07-29T11:15:22;24.80;99.90
5683;DHT22;2864;49.220;8.654;2023-07-29T11:17:58;24.80;99.90
5683;DHT22;2864;49.220;8.654;2023-07-29T11:20:29;24.90;99.90
5683;DHT22;2864;49.220;8.654;2023-07-29T11:22:56;25.00;99.90
5683;DHT22;2864;49.220;8.654;2023-07-29T11:25:24;25.10;99.90
5683;DHT22;2864;49.220;8.654;2023-07-29T11:27:52;25.70;99.90
5683;DHT22;2864;49.220;8.654;2023-07-29T11:30:18;25.30;99.90
5683;DHT22;2864;49.220;8.654;2023-07-29T11:32:45;25.90;99.90
5683;DHT22;2864;49.220;8.654;2023-07-29T11:35:13;25.10;99.90
5683;DHT22;2864;49.220;8.654;2023-07-29T11:37:41;24.40;99.90
5683;DHT22;2864;49.220;8.654;2023-07-29T11:40:07;24.30;99.90
5683;DHT22;2864;49.220;8.654;2023-07-29T11:42:36;24.10;99.90
5683;DHT22;2864;49.220;8.654;2023-07-29T11:45:03;24.10;99.90
5683;DHT22;2864;49.220;8.654;2023-07-29T11:47:32;24.10;99.90
5683;DHT22;2864;49.220;8.654;2023-07-29T11:50:01;24.20;99.90
5683;DHT22;2864;49.220;8.654;2023-07-29T11:52:27;24.20;99.90
5683;DHT22;2864;49.220;8.654;2023-07-29T11:54:54;24.10;99.90
5683;DHT22;2864;49.220;8.654;2023-07-29T11:57:19;23.90;99.90
5683;DHT22;2864;49.220;8.654;2023-07-29T11:59:46;23.70;99.90
5683;DHT22;2864;49.220;8.654;2023-07-29T12:02:16;23.20;99.90
5683;DHT22;2864;49.220;8.654;2023-07-29T12:04:44;23.10;99.90
5683;DHT22;2864;49.220;8.654;2023-07-29T12:07:13;23.20;99.90
5683;DHT22;2864;49.220;8.654;2023-07-29T12:09:39;23.20;99.90
5683;DHT22;2864;49.220;8.654;2023-07-29T12:12:06;23.60;99.90
5683;DHT22;2864;49.220;8.654;2023-07-29T12:14:32;23.90;99.90
5683;DHT22;2864;49.220;8.654;2023-07-29T12:17:05;24.10;99.90
5683;DHT22;2864;49.220;8.654;2023-07-29T12:19:37;24.40;99.90
5683;DHT22;2864;49.220;8.654;2023-07-29T12:22:04;24.60;99.90
5683;DHT22;2864;49.220;8.654;2023-07-29T12:24:31;24.80;99.90
5683;DHT22;2864;49.220;8.654;2023-07-29T12:26:57;25.20;99.90
5683;DHT22;2864;49.220;8.654;2023-07-29T12:29:23;25.50;99.90
5683;DHT22;2864;49.220;8.654;2023-07-29T12:31:49;25.60;99.90
5683;DHT22;2864;49.220;8.654;2023-07-29T12:34:21;25.80;99.90
5683;DHT22;2864;49.220;8.654;2023-07-29T12:36:51;26.20;99.90
5683;DHT22;2864;49.220;8.654;2023-07-29T12:41:43;26.60;99.90
5683;DHT22;2864;49.220;8.654;2023-07-29T12:44:09;26.70;99.90
5683;DHT22;2864;49.220;8.654;2023-07-29T12:46:34;26.40;99.90
5683;DHT22;2864;49.220;8.654;2023-07-29T12:49:00;26.60;99.90
5683;DHT22;2864;49.220;8.654;2023-07-29T12:51:25;26.60;99.00
5683;DHT22;2864;49.220;8.654;2023-07-29T12:53:51;27.70;98.60
5683;DHT22;2864;49.220;8.654;2023-07-29T12:56:16;28.60;96.20
5683;DHT22;2864;49.220;8.654;2023-07-29T12:58:42;27.80;95.90
5683;DHT22;2864;49.220;8.654;2023-07-29T13:01:07;28.40;94.60
5683;DHT22;2864;49.220;8.654;2023-07-29T13:03:34;28.10;94.30
5683;DHT22;2864;49.220;8.654;2023-07-29T13:05:59;28.30;94.10
5683;DHT22;2864;49.220;8.654;2023-07-29T13:08:25;28.80;94.70
5683;DHT22;2864;49.220;8.654;2023-07-29T13:10:50;29.80;93.00
5683;DHT22;2864;49.220;8.654;2023-07-29T13:13:16;30.90;92.50
5683;DHT22;2864;49.220;8.654;2023-07-29T13:15:41;31.80;91.00
5683;DHT22;2864;49.220;8.654;2023-07-29T13:18:07;31.40;90.20
5683;DHT22;2864;49.220;8.654;2023-07-29T13:20:32;30.10;91.10
5683;DHT22;2864;49.220;8.654;2023-07-29T13:23:00;31.70;90.40
5683;DHT22;2864;49.220;8.654;2023-07-29T13:25:25;31.70;80.80
5683;DHT22;2864;49.220;8.654;2023-07-29T13:27:51;31.50;80.00
5683;DHT22;2864;49.220;8.654;2023-07-29T13:30:16;31.70;79.10
5683;DHT22;2864;49.220;8.654;2023-07-29T13:32:42;31.70;77.20
5683;DHT22;2864;49.220;8.654;2023-07-29T13:35:07;32.40;77.40
5683;DHT22;2864;49.220;8.654;2023-07-29T13:37:33;32.30;75.50
5683;DHT22;2864;49.220;8.654;2023-07-29T13:39:58;32.10;77.40
5683;DHT22;2864;49.220;8.654;2023-07-29T13:42:24;32.60;78.30
5683;DHT22;2864;49.220;8.654;2023-07-29T13:44:49;33.40;75.90
5683;DHT22;2864;49.220;8.654;2023-07-29T13:47:15;33.00;76.60
5683;DHT22;2864;49.220;8.654;2023-07-29T13:49:40;34.60;74.60
5683;DHT22;2864;49.220;8.654;2023-07-29T13:52:06;32.80;76.70
5683;DHT22;2864;49.220;8.654;2023-07-29T13:54:32;31.20;77.50
5683;DHT22;2864;49.220;8.654;2023-07-29T13:56:57;29.90;81.20
5683;DHT22;2864;49.220;8.654;2023-07-29T13:59:23;29.80;81.40
5683;DHT22;2864;49.220;8.654;2023-07-29T14:01:49;30.60;80.00
5683;DHT22;2864;49.220;8.654;2023-07-29T14:04:14;29.50;81.60
5683;DHT22;2864;49.220;8.654;2023-07-29T14:06:40;28.80;82.20
5683;DHT22;2864;49.220;8.654;2023-07-29T14:09:05;30.80;81.70
5683;DHT22;2864;49.220;8.654;2023-07-29T14:11:31;29.80;81.00
5683;DHT22;2864;49.220;8.654;2023-07-29T14:13:56;28.70;82.80
5683;DHT22;2864;49.220;8.654;2023-07-29T14:16:22;28.10;85.40
5683;DHT22;2864;49.220;8.654;2023-07-29T14:18:47;28.00;84.70
5683;DHT22;2864;49.220;8.654;2023-07-29T14:21:13;31.50;78.80
5683;DHT22;2864;49.220;8.654;2023-07-29T14:23:38;32.00;77.60
5683;DHT22;2864;49.220;8.654;2023-07-29T14:26:04;30.50;78.00
5683;DHT22;2864;49.220;8.654;2023-07-29T14:28:29;31.40;77.40
5683;DHT22;2864;49.220;8.654;2023-07-29T14:30:56;32.00;74.60
5683;DHT22;2864;49.220;8.654;2023-07-29T14:33:21;30.80;75.80
5683;DHT22;2864;49.220;8.654;2023-07-29T14:35:47;33.00;74.80
5683;DHT22;2864;49.220;8.654;2023-07-29T14:38:12;31.40;74.50
5683;DHT22;2864;49.220;8.654;2023-07-29T14:40:38;30.00;76.90
5683;DHT22;2864;49.220;8.654;2023-07-29T14:43:03;31.60;74.30
5683;DHT22;2864;49.220;8.654;2023-07-29T14:45:29;33.50;72.00
5683;DHT22;2864;49.220;8.654;2023-07-29T14:47:54;33.30;71.10
5683;DHT22;2864;49.220;8.654;2023-07-29T14:50:20;32.10;72.50
5683;DHT22;2864;49.220;8.654;2023-07-29T14:52:45;30.30;74.90
5683;DHT22;2864;49.220;8.654;2023-07-29T14:55:11;29.30;76.30
5683;DHT22;2864;49.220;8.654;2023-07-29T14:57:36;28.40;78.50
5683;DHT22;2864;49.220;8.654;2023-07-29T15:00:03;28.10;78.30
5683;DHT22;2864;49.220;8.654;2023-07-29T15:02:29;27.90;79.40
5683;DHT22;2864;49.220;8.654;2023-07-29T15:04:55;27.50;80.40
5683;DHT22;2864;49.220;8.654;2023-07-29T15:07:20;28.40;80.00
5683;DHT22;2864;49.220;8.654;2023-07-29T15:09:46;30.90;75.50
5683;DHT22;2864;49.220;8.654;2023-07-29T15:12:11;31.70;73.90
5683;DHT22;2864;49.220;8.654;2023-07-29T15:14:37;34.10;69.50
5683;DHT22;2864;49.220;8.654;2023-07-29T15:17:02;33.70;68.70
5683;DHT22;2864;49.220;8.654;2023-07-29T15:19:28;32.20;71.20
5683;DHT22;2864;49.220;8.654;2023-07-29T15:21:53;32.40;70.40
5683;DHT22;2864;49.220;8.654;2023-07-29T15:24:19;30.90;71.80
5683;DHT22;2864;49.220;8.654;2023-07-29T15:26:45;29.10;75.10
5683;DHT22;2864;49.220;8.654;2023-07-29T15:29:10;28.20;77.10
5683;DHT22;2864;49.220;8.654;2023-07-29T15:31:36;27.70;78.40
5683;DHT22;2864;49.220;8.654;2023-07-29T15:34:01;30.60;74.80
5683;DHT22;2864;49.220;8.654;2023-07-29T15:36:27;30.80;73.80
5683;DHT22;2864;49.220;8.654;2023-07-29T15:38:53;33.00;70.50
5683;DHT22;2864;49.220;8.654;2023-07-29T15:41:18;33.70;68.90
5683;DHT22;2864;49.220;8.654;2023-07-29T15:43:44;31.00;72.10
5683;DHT22;2864;49.220;8.654;2023-07-29T15:46:09;31.60;71.80
5683;DHT22;2864;49.220;8.654;2023-07-29T15:48:35;30.90;71.90
5683;DHT22;2864;49.220;8.654;2023-07-29T15:51:00;32.60;70.60
5683;DHT22;2864;49.220;8.654;2023-07-29T15:53:26;32.60;70.70
5683;DHT22;2864;49.220;8.654;2023-07-29T15:55:51;33.40;68.40
5683;DHT22;2864;49.220;8.654;2023-07-29T15:58:17;34.10;66.70
5683;DHT22;2864;49.220;8.654;2023-07-29T16:00:42;33.10;67.40
5683;DHT22;2864;49.220;8.654;2023-07-29T16:03:08;31.20;69.50
5683;DHT22;2864;49.220;8.654;2023-07-29T16:05:34;30.30;71.70
5683;DHT22;2864;49.220;8.654;2023-07-29T16:07:59;29.70;72.60
5683;DHT22;2864;49.220;8.654;2023-07-29T16:10:25;28.90;74.80
5683;DHT22;2864;49.220;8.654;2023-07-29T16:12:50;28.90;74.80
5683;DHT22;2864;49.220;8.654;2023-07-29T16:15:16;28.90;75.50
5683;DHT22;2864;49.220;8.654;2023-07-29T16:17:42;28.30;76.80
5683;DHT22;2864;49.220;8.654;2023-07-29T16:20:08;27.50;78.20
5683;DHT22;2864;49.220;8.654;2023-07-29T16:22:33;27.20;79.90